createdAt,value
2023-05-06T00:01:57.843Z,87.55
2023-05-06T00:04:24.580Z,86.75
2023-05-06T00:06:51.408Z,87.44
2023-05-06T00:09:18.051Z,87.97
2023-05-06T00:11:45.829Z,88.36
2023-05-06T00:14:12.523Z,89.46
2023-05-06T00:16:39.239Z,89.24
2023-05-06T00:19:06.161Z,89.85
2023-05-06T00:21:32.921Z,88.58
2023-05-06T00:23:59.588Z,90.06
2023-05-06T00:26:26.692Z,89.19
2023-05-06T00:28:53.294Z,89.32
2023-05-06T00:31:20.031Z,89.83
2023-05-06T00:33:46.686Z,90.37
2023-05-06T00:36:13.234Z,90.54
2023-05-06T00:38:39.918Z,89.74
2023-05-06T00:41:06.605Z,89.77
2023-05-06T00:43:33.191Z,90.36
2023-05-06T00:46:00.065Z,89.90
2023-05-06T00:48:26.921Z,90.19
2023-05-06T00:50:53.855Z,91.25
2023-05-06T00:53:24.064Z,90.66
2023-05-06T00:55:51.306Z,89.97
2023-05-06T00:58:20.118Z,89.46
2023-05-06T01:00:46.927Z,90.06
2023-05-06T01:03:13.690Z,90.19
2023-05-06T01:05:52.947Z,90.19
2023-05-06T01:08:33.555Z,90.05
2023-05-06T01:11:12.416Z,91.63
2023-05-06T01:13:49.044Z,90.97
2023-05-06T01:16:20.000Z,90.77
2023-05-06T01:18:49.521Z,90.81
2023-05-06T01:21:18.483Z,91.26
2023-05-06T01:23:58.402Z,90.80
2023-05-06T01:26:25.411Z,90.90
2023-05-06T01:28:52.905Z,91.25
2023-05-06T01:31:44.199Z,92.14
2023-05-06T01:34:34.621Z,92.33
2023-05-06T01:37:10.427Z,92.39
2023-05-06T01:39:39.187Z,91.98
2023-05-06T01:42:06.628Z,91.27
2023-05-06T01:44:34.299Z,92.17
2023-05-06T01:47:01.781Z,91.99
2023-05-06T01:49:29.885Z,91.91
2023-05-06T01:51:57.854Z,92.68
2023-05-06T01:54:24.529Z,92.85
2023-05-06T01:56:51.321Z,92.12
2023-05-06T01:59:17.897Z,92.09
2023-05-06T02:01:45.021Z,92.43
2023-05-06T02:04:11.654Z,93.07
2023-05-06T02:06:38.194Z,92.52
2023-05-06T02:09:04.803Z,92.43
2023-05-06T02:11:31.339Z,92.38
2023-05-06T02:13:58.284Z,92.14
2023-05-06T02:16:28.321Z,91.74
2023-05-06T02:18:55.453Z,92.37
2023-05-06T02:21:23.214Z,92.22
2023-05-06T02:23:52.967Z,92.66
2023-05-06T02:26:19.553Z,93.07
2023-05-06T02:28:46.166Z,92.42
2023-05-06T02:31:14.947Z,92.71
2023-05-06T02:33:42.103Z,93.17
2023-05-06T02:36:08.861Z,92.67
2023-05-06T02:38:35.481Z,92.61
2023-05-06T02:41:02.199Z,92.47
2023-05-06T02:43:28.844Z,92.17
2023-05-06T02:45:55.529Z,92.97
2023-05-06T02:48:22.748Z,92.88
2023-05-06T02:50:49.916Z,93.04
2023-05-06T02:53:16.599Z,93.47
2023-05-06T02:55:43.200Z,93.23
2023-05-06T02:58:09.948Z,93.27
2023-05-06T03:00:36.545Z,93.29
2023-05-06T03:03:03.851Z,91.96
2023-05-06T03:05:30.598Z,92.28
2023-05-06T03:07:57.635Z,92.20
2023-05-06T03:10:24.618Z,93.14
2023-05-06T03:12:51.348Z,92.55
2023-05-06T03:15:18.127Z,92.53
2023-05-06T03:17:44.670Z,92.46
2023-05-06T03:20:11.391Z,93.08
2023-05-06T03:22:38.038Z,93.15
2023-05-06T03:25:05.152Z,93.04
2023-05-06T03:27:31.692Z,93.21
2023-05-06T03:29:58.285Z,92.92
2023-05-06T03:32:24.866Z,91.95
2023-05-06T03:34:51.479Z,92.55
2023-05-06T03:37:18.777Z,92.95
2023-05-06T03:39:45.518Z,93.64
2023-05-06T03:42:12.109Z,93.61
2023-05-06T03:44:38.760Z,92.90
2023-05-06T03:47:05.324Z,92.94
2023-05-06T03:49:31.944Z,93.13
2023-05-06T03:51:58.593Z,93.80
2023-05-06T03:54:25.309Z,93.44
2023-05-06T03:56:51.845Z,92.92
2023-05-06T03:59:18.583Z,92.64
2023-05-06T04:01:45.283Z,93.33
2023-05-06T04:04:11.909Z,93.05
2023-05-06T04:06:38.517Z,93.22
2023-05-06T04:09:06.326Z,93.75
2023-05-06T04:11:33.045Z,93.40
2023-05-06T04:13:59.548Z,93.93
2023-05-06T04:16:26.652Z,94.20
2023-05-06T04:18:53.305Z,92.84
2023-05-06T04:21:19.933Z,93.49
2023-05-06T04:23:46.520Z,93.47
2023-05-06T04:26:13.125Z,93.41
2023-05-06T04:28:39.763Z,94.11
2023-05-06T04:31:08.462Z,94.29
2023-05-06T04:33:35.687Z,94.33
2023-05-06T04:36:03.387Z,93.56
2023-05-06T04:38:31.951Z,93.16
2023-05-06T04:40:59.417Z,93.63
2023-05-06T04:43:27.672Z,94.19
2023-05-06T04:45:55.325Z,94.24
2023-05-06T04:48:22.393Z,94.68
2023-05-06T04:50:49.519Z,94.13
2023-05-06T04:53:16.871Z,93.65
2023-05-06T04:55:43.580Z,94.35
2023-05-06T04:58:10.283Z,93.84
2023-05-06T05:00:36.765Z,94.27
2023-05-06T05:03:03.796Z,94.25
2023-05-06T05:05:34.319Z,94.32
2023-05-06T05:08:00.938Z,94.29
2023-05-06T05:10:27.534Z,93.78
2023-05-06T05:12:54.474Z,94.17
2023-05-06T05:15:21.300Z,94.05
2023-05-06T05:17:48.111Z,93.57
2023-05-06T05:20:14.758Z,93.87
2023-05-06T05:22:41.364Z,93.96
2023-05-06T05:25:08.572Z,94.32
2023-05-06T05:27:35.518Z,94.40
2023-05-06T05:30:02.143Z,94.33
2023-05-06T05:32:28.843Z,94.22
2023-05-06T05:34:55.507Z,93.94
2023-05-06T05:37:22.064Z,94.36
2023-05-06T05:39:48.651Z,93.84
2023-05-06T05:42:15.225Z,93.74
2023-05-06T05:44:41.866Z,93.65
2023-05-06T05:47:08.492Z,94.03
2023-05-06T05:49:35.087Z,94.41
2023-05-06T05:52:01.662Z,94.21
2023-05-06T05:54:28.727Z,94.26
2023-05-06T05:56:55.323Z,94.12
2023-05-06T05:59:21.862Z,94.23
2023-05-06T06:01:48.338Z,94.03
2023-05-06T06:04:15.835Z,93.89
2023-05-06T06:06:42.652Z,94.06
2023-05-06T06:09:09.928Z,94.27
2023-05-06T06:11:36.620Z,93.87
2023-05-06T06:14:03.189Z,93.77
2023-05-06T06:16:29.980Z,93.87
2023-05-06T06:18:56.584Z,94.59
2023-05-06T06:21:23.157Z,94.63
2023-05-06T06:23:49.807Z,93.50
2023-05-06T06:26:16.306Z,94.00
2023-05-06T06:28:44.648Z,94.30
2023-05-06T06:31:11.645Z,94.79
2023-05-06T06:33:38.218Z,94.16
2023-05-06T06:36:05.557Z,93.91
2023-05-06T06:38:32.241Z,94.01
2023-05-06T06:40:58.760Z,94.14
2023-05-06T06:43:25.504Z,94.76
2023-05-06T06:45:52.206Z,94.80
2023-05-06T06:48:18.980Z,94.88
2023-05-06T06:50:45.742Z,94.88
2023-05-06T06:53:13.549Z,94.62
2023-05-06T06:55:43.754Z,94.77
2023-05-06T06:58:10.571Z,94.51
2023-05-06T07:00:37.543Z,94.92
2023-05-06T07:03:04.306Z,94.81
2023-05-06T07:05:30.942Z,94.45
2023-05-06T07:07:57.477Z,94.22
2023-05-06T07:10:24.081Z,94.50
2023-05-06T07:12:50.656Z,94.94
2023-05-06T07:15:17.297Z,94.55
2023-05-06T07:17:43.940Z,94.70
2023-05-06T07:20:11.074Z,94.28
2023-05-06T07:22:37.819Z,94.70
2023-05-06T07:25:04.600Z,94.49
2023-05-06T07:27:31.491Z,94.20
2023-05-06T07:29:58.152Z,94.52
2023-05-06T07:32:24.832Z,93.96
2023-05-06T07:34:51.430Z,94.28
2023-05-06T07:37:18.008Z,93.93
2023-05-06T07:39:44.699Z,94.19
2023-05-06T07:42:13.139Z,94.46
2023-05-06T07:44:40.144Z,93.98
2023-05-06T07:47:06.948Z,94.06
2023-05-06T07:49:34.992Z,92.99
2023-05-06T07:52:03.408Z,93.87
2023-05-06T07:54:31.478Z,93.55
2023-05-06T07:56:58.158Z,93.27
2023-05-06T07:59:24.808Z,93.60
2023-05-06T08:01:51.379Z,93.93
2023-05-06T08:04:17.931Z,94.10
2023-05-06T08:06:44.574Z,94.43
2023-05-06T08:09:17.018Z,94.03
2023-05-06T08:11:50.198Z,94.47
2023-05-06T08:14:16.811Z,93.99
2023-05-06T08:16:43.597Z,94.03
2023-05-06T08:19:10.457Z,94.09
2023-05-06T08:21:37.083Z,93.70
2023-05-06T08:24:04.071Z,93.97
2023-05-06T08:26:30.696Z,94.29
2023-05-06T08:28:57.789Z,94.84
2023-05-06T08:31:24.436Z,94.92
2023-05-06T08:33:53.871Z,93.99
2023-05-06T08:36:21.949Z,93.88
2023-05-06T08:38:50.732Z,94.35
2023-05-06T08:41:19.544Z,94.88
2023-05-06T08:43:47.856Z,95.20
2023-05-06T08:46:14.888Z,95.33
2023-05-06T08:48:42.067Z,94.88
2023-05-06T08:51:09.211Z,94.81
2023-05-06T08:53:36.425Z,94.83
2023-05-06T08:56:06.817Z,94.77
2023-05-06T08:58:35.118Z,93.56
2023-05-06T09:01:02.982Z,94.40
2023-05-06T09:03:29.811Z,95.14
2023-05-06T09:05:57.716Z,94.92
2023-05-06T09:08:24.358Z,94.70
2023-05-06T09:10:51.009Z,93.92
2023-05-06T09:13:19.543Z,94.42
2023-05-06T09:15:48.041Z,94.85
2023-05-06T09:18:16.017Z,94.71
2023-05-06T09:20:47.602Z,93.70
2023-05-06T09:23:17.021Z,94.64
2023-05-06T09:25:46.136Z,94.66
2023-05-06T09:28:13.814Z,94.66
2023-05-06T09:30:42.313Z,95.20
2023-05-06T09:33:09.897Z,95.11
2023-05-06T09:35:39.226Z,94.81
2023-05-06T09:38:07.532Z,94.67
2023-05-06T09:40:37.892Z,94.16
2023-05-06T09:43:05.662Z,94.41
2023-05-06T09:45:33.105Z,94.45
2023-05-06T09:48:00.592Z,94.56
2023-05-06T09:50:27.362Z,94.71
2023-05-06T09:52:55.115Z,94.81
2023-05-06T09:55:23.430Z,94.51
2023-05-06T09:57:51.205Z,94.38
2023-05-06T10:00:18.647Z,93.86
2023-05-06T10:02:47.654Z,92.46
2023-05-06T10:05:14.812Z,93.62
2023-05-06T10:07:42.224Z,94.21
2023-05-06T10:10:11.022Z,92.99
2023-05-06T10:12:38.215Z,93.78
2023-05-06T10:15:05.607Z,94.31
2023-05-06T10:17:33.474Z,94.47
2023-05-06T10:20:01.781Z,94.24
2023-05-06T10:22:40.234Z,94.12
2023-05-06T10:25:22.430Z,94.29
2023-05-06T10:27:49.175Z,94.49
2023-05-06T10:30:19.293Z,94.28
2023-05-06T10:32:46.628Z,94.67
2023-05-06T10:35:19.177Z,94.14
2023-05-06T10:37:49.478Z,94.34
2023-05-06T10:40:16.601Z,93.77
2023-05-06T10:42:43.275Z,93.13
2023-05-06T10:45:10.859Z,93.64
2023-05-06T10:47:58.604Z,93.95
2023-05-06T10:50:26.737Z,93.69
2023-05-06T10:53:01.383Z,93.40
2023-05-06T10:55:33.150Z,93.59
2023-05-06T10:58:06.128Z,91.83
2023-05-06T11:00:34.420Z,92.70
2023-05-06T11:03:03.300Z,91.12
2023-05-06T11:05:30.328Z,91.18
2023-05-06T11:08:12.672Z,90.98
2023-05-06T11:10:39.254Z,91.32
2023-05-06T11:13:29.047Z,92.07
2023-05-06T11:15:57.334Z,92.17
2023-05-06T11:18:31.797Z,92.31
2023-05-06T11:21:01.147Z,92.74
2023-05-06T11:24:03.058Z,91.80
2023-05-06T11:26:31.915Z,91.73
2023-05-06T11:29:02.144Z,92.44
2023-05-06T11:31:30.977Z,93.01
2023-05-06T11:33:59.580Z,91.74
2023-05-06T11:36:28.293Z,91.75
2023-05-06T11:38:56.273Z,91.28
2023-05-06T11:41:23.408Z,91.85
2023-05-06T11:43:52.432Z,91.06
2023-05-06T11:46:21.462Z,91.44
2023-05-06T11:48:48.948Z,91.36
2023-05-06T11:51:16.272Z,91.77
2023-05-06T11:53:42.923Z,91.40
2023-05-06T11:56:09.934Z,89.67
2023-05-06T11:58:36.534Z,90.22
2023-05-06T12:01:04.576Z,91.25
2023-05-06T12:03:32.699Z,91.56
2023-05-06T12:05:59.914Z,91.77
2023-05-06T12:08:31.838Z,91.91
2023-05-06T12:11:01.646Z,91.96
2023-05-06T12:13:29.194Z,91.99
2023-05-06T12:15:58.839Z,91.94
2023-05-06T12:18:26.225Z,90.92
2023-05-06T12:20:56.959Z,92.79
2023-05-06T12:23:23.650Z,91.85
2023-05-06T12:26:06.521Z,91.19
2023-05-06T12:28:35.414Z,92.44
2023-05-06T12:31:21.371Z,92.18
2023-05-06T12:33:49.769Z,92.20
2023-05-06T12:36:17.788Z,92.78
2023-05-06T12:38:52.512Z,92.60
2023-05-06T12:41:23.380Z,92.07
2023-05-06T12:43:52.765Z,91.26
2023-05-06T12:46:19.450Z,90.01
2023-05-06T12:49:02.365Z,90.56
2023-05-06T12:51:31.081Z,90.68
2023-05-06T12:53:57.881Z,90.97
2023-05-06T12:56:24.639Z,91.83
2023-05-06T12:59:03.471Z,92.14
2023-05-06T13:01:31.257Z,91.85
2023-05-06T13:03:58.403Z,91.82
2023-05-06T13:06:25.210Z,92.07
2023-05-06T13:08:51.841Z,90.85
2023-05-06T13:11:18.422Z,90.90
2023-05-06T13:13:45.276Z,91.29
2023-05-06T13:16:11.966Z,91.47
2023-05-06T13:18:38.888Z,91.69
2023-05-06T13:21:05.641Z,91.90
2023-05-06T13:23:34.914Z,90.08
2023-05-06T13:26:05.830Z,90.59
2023-05-06T13:28:35.241Z,89.93
2023-05-06T13:31:01.838Z,90.12
2023-05-06T13:33:28.605Z,89.27
2023-05-06T13:35:55.161Z,88.78
2023-05-06T13:38:21.890Z,89.50
2023-05-06T13:40:52.907Z,88.94
2023-05-06T13:43:20.448Z,88.75
2023-05-06T13:45:47.512Z,87.27
2023-05-06T13:48:14.881Z,88.58
2023-05-06T13:50:48.550Z,88.85
2023-05-06T13:53:15.457Z,87.69
2023-05-06T13:55:42.797Z,86.70
2023-05-06T13:58:09.657Z,86.66
2023-05-06T14:00:36.275Z,85.68
2023-05-06T14:03:03.049Z,86.50
2023-05-06T14:05:29.927Z,86.80
2023-05-06T14:07:56.445Z,85.65
2023-05-06T14:10:23.051Z,87.62
2023-05-06T14:12:49.643Z,86.56
2023-05-06T14:15:16.327Z,88.11
2023-05-06T14:17:43.182Z,87.06
2023-05-06T14:20:10.524Z,88.06
2023-05-06T14:22:40.150Z,88.48
2023-05-06T14:25:07.844Z,88.90
2023-05-06T14:27:34.835Z,90.02
2023-05-06T14:30:07.447Z,88.18
2023-05-06T14:32:35.144Z,88.02
2023-05-06T14:35:01.935Z,88.31
2023-05-06T14:37:28.510Z,87.25
2023-05-06T14:39:56.530Z,88.30
2023-05-06T14:42:23.324Z,87.75
2023-05-06T14:44:50.636Z,88.24
2023-05-06T14:47:17.501Z,88.70
2023-05-06T14:49:44.135Z,89.31
2023-05-06T14:52:10.714Z,89.38
2023-05-06T14:54:42.070Z,90.23
2023-05-06T14:57:09.525Z,88.71
2023-05-06T14:59:37.079Z,87.80
2023-05-06T15:02:04.385Z,89.44
2023-05-06T15:04:31.203Z,88.47
2023-05-06T15:06:57.902Z,89.01
2023-05-06T15:09:25.621Z,90.44
2023-05-06T15:11:52.468Z,89.52
2023-05-06T15:14:19.088Z,89.78
2023-05-06T15:16:45.751Z,88.36
2023-05-06T15:19:12.664Z,89.64
2023-05-06T15:21:39.236Z,89.69
2023-05-06T15:24:06.218Z,87.93
2023-05-06T15:26:32.936Z,88.96
2023-05-06T15:28:59.622Z,88.81
2023-05-06T15:31:26.225Z,88.35
2023-05-06T15:33:52.809Z,88.20
2023-05-06T15:36:19.389Z,87.85
2023-05-06T15:38:52.103Z,87.76
2023-05-06T15:41:19.336Z,87.23
2023-05-06T15:43:45.874Z,88.90
2023-05-06T15:46:12.481Z,89.15
2023-05-06T15:48:39.060Z,89.10
2023-05-06T15:51:06.335Z,89.43
2023-05-06T15:53:32.947Z,89.04
2023-05-06T15:56:13.022Z,89.46
2023-05-06T15:58:43.778Z,88.98
2023-05-06T16:01:11.350Z,89.81
2023-05-06T16:03:41.209Z,89.61
2023-05-06T16:06:09.779Z,88.07
2023-05-06T16:08:37.906Z,89.10
2023-05-06T16:11:05.359Z,87.76
2023-05-06T16:13:32.410Z,87.25
2023-05-06T16:16:01.254Z,86.64
2023-05-06T16:18:28.145Z,88.12
2023-05-06T16:20:54.735Z,88.98
2023-05-06T16:23:21.748Z,88.87
2023-05-06T16:25:48.523Z,88.06
2023-05-06T16:28:15.204Z,88.01
2023-05-06T16:30:44.545Z,87.93
2023-05-06T16:33:12.080Z,88.06
2023-05-06T16:35:39.239Z,88.03
2023-05-06T16:38:06.387Z,87.70
2023-05-06T16:40:41.359Z,87.74
2023-05-06T16:43:07.994Z,89.30
2023-05-06T16:45:34.599Z,88.10
2023-05-06T16:48:01.272Z,88.32
2023-05-06T16:50:27.924Z,89.05
2023-05-06T16:52:54.549Z,88.65
2023-05-06T16:55:21.906Z,88.23
2023-05-06T16:57:48.620Z,88.59
2023-05-06T17:00:16.425Z,89.32
2023-05-06T17:02:43.181Z,89.27
2023-05-06T17:05:09.880Z,89.59
2023-05-06T17:07:37.397Z,88.52
2023-05-06T17:10:04.875Z,89.50
2023-05-06T17:12:31.920Z,88.48
2023-05-06T17:14:58.472Z,89.48
2023-05-06T17:17:28.499Z,89.86
2023-05-06T17:19:57.286Z,90.42
2023-05-06T17:22:26.327Z,90.06
2023-05-06T17:24:53.255Z,89.21
2023-05-06T17:27:19.964Z,89.12
2023-05-06T17:29:46.677Z,89.48
2023-05-06T17:32:13.432Z,89.05
2023-05-06T17:34:40.147Z,89.08
2023-05-06T17:37:06.716Z,89.72
2023-05-06T17:39:33.414Z,89.93
2023-05-06T17:42:01.696Z,89.37
2023-05-06T17:44:28.349Z,90.26
2023-05-06T17:46:55.922Z,89.30
2023-05-06T17:49:23.206Z,89.95
2023-05-06T17:51:51.024Z,90.32
2023-05-06T17:54:17.902Z,90.39
2023-05-06T17:56:50.421Z,90.88
2023-05-06T17:59:18.797Z,90.86
2023-05-06T18:01:45.816Z,89.52
2023-05-06T18:04:12.606Z,90.30
2023-05-06T18:06:41.387Z,91.07
2023-05-06T18:09:08.468Z,90.48
2023-05-06T18:11:35.280Z,90.63
2023-05-06T18:14:01.925Z,90.06
2023-05-06T18:16:28.763Z,90.16
2023-05-06T18:18:55.347Z,89.57
2023-05-06T18:21:22.294Z,90.28
2023-05-06T18:23:51.399Z,90.88
2023-05-06T18:26:35.280Z,91.28
2023-05-06T18:29:06.954Z,91.15
2023-05-06T18:31:33.596Z,90.69
2023-05-06T18:34:00.280Z,90.86
2023-05-06T18:36:26.937Z,90.86
2023-05-06T18:38:53.597Z,90.09
2023-05-06T18:41:20.852Z,90.96
2023-05-06T18:43:47.550Z,91.33
2023-05-06T18:46:14.232Z,90.98
2023-05-06T18:48:40.837Z,91.03
2023-05-06T18:51:15.696Z,91.37
2023-05-06T18:53:43.142Z,91.48
2023-05-06T18:56:10.685Z,91.27
2023-05-06T18:58:38.899Z,91.06
2023-05-06T19:01:07.288Z,91.47
2023-05-06T19:03:34.930Z,91.67
2023-05-06T19:06:03.900Z,90.71
2023-05-06T19:08:31.616Z,90.77
2023-05-06T19:11:02.023Z,90.71
2023-05-06T19:13:28.803Z,90.69
2023-05-06T19:15:56.982Z,90.86
2023-05-06T19:18:23.869Z,91.35
2023-05-06T19:20:50.768Z,90.97
2023-05-06T19:23:17.591Z,91.42
2023-05-06T19:25:44.155Z,91.83
2023-05-06T19:28:10.908Z,92.22
2023-05-06T19:30:37.565Z,92.04
2023-05-06T19:33:04.579Z,91.86
2023-05-06T19:35:31.454Z,91.81
2023-05-06T19:37:58.109Z,92.05
2023-05-06T19:40:24.853Z,92.03
2023-05-06T19:42:51.498Z,92.03
2023-05-06T19:45:19.108Z,91.68
2023-05-06T19:47:46.233Z,91.93
2023-05-06T19:50:13.241Z,91.29
2023-05-06T19:52:40.477Z,91.32
2023-05-06T19:55:07.673Z,92.42
2023-05-06T19:57:34.273Z,91.70
2023-05-06T20:00:05.269Z,92.17
2023-05-06T20:02:32.868Z,92.89
2023-05-06T20:05:02.752Z,92.69
2023-05-06T20:07:29.345Z,92.59
2023-05-06T20:09:56.845Z,91.69
2023-05-06T20:12:28.462Z,91.85
2023-05-06T20:14:55.996Z,92.15
2023-05-06T20:17:23.251Z,92.76
2023-05-06T20:19:50.188Z,92.60
2023-05-06T20:22:16.760Z,92.58
2023-05-06T20:24:44.255Z,93.18
2023-05-06T20:27:11.238Z,93.46
2023-05-06T20:29:38.103Z,93.18
2023-05-06T20:32:05.096Z,92.74
2023-05-06T20:34:31.759Z,92.86
2023-05-06T20:36:58.396Z,93.29
2023-05-06T20:39:25.208Z,92.93
2023-05-06T20:41:51.738Z,92.88
2023-05-06T20:44:18.291Z,93.46
2023-05-06T20:46:44.907Z,93.27
2023-05-06T20:49:11.782Z,93.56
2023-05-06T20:51:38.385Z,93.69
2023-05-06T20:54:04.997Z,93.58
2023-05-06T20:56:31.567Z,93.56
2023-05-06T20:58:58.157Z,94.11
2023-05-06T21:01:25.644Z,93.43
2023-05-06T21:03:52.506Z,94.12
2023-05-06T21:06:20.997Z,94.34
2023-05-06T21:08:47.702Z,94.54
2023-05-06T21:11:14.375Z,94.44
2023-05-06T21:13:41.734Z,94.02
2023-05-06T21:16:08.560Z,94.00
2023-05-06T21:18:35.650Z,94.49
2023-05-06T21:21:02.441Z,94.10
2023-05-06T21:23:29.309Z,94.36
2023-05-06T21:25:56.329Z,94.19
2023-05-06T21:28:23.418Z,94.11
2023-05-06T21:30:53.103Z,94.42
2023-05-06T21:33:19.779Z,94.23
2023-05-06T21:35:46.537Z,94.12
2023-05-06T21:38:13.235Z,94.18
2023-05-06T21:40:41.701Z,94.18
2023-05-06T21:43:08.334Z,94.35
2023-05-06T21:45:35.688Z,94.23
2023-05-06T21:48:02.367Z,94.04
2023-05-06T21:50:29.003Z,94.04
2023-05-06T21:52:55.681Z,94.28
2023-05-06T21:55:22.568Z,94.07
2023-05-06T21:57:49.514Z,93.74
2023-05-06T22:00:17.223Z,94.19
2023-05-06T22:02:44.710Z,94.33
2023-05-06T22:05:11.989Z,94.52
2023-05-06T22:07:38.973Z,93.64
2023-05-06T22:10:06.216Z,94.03
2023-05-06T22:12:32.897Z,93.91
2023-05-06T22:14:59.456Z,93.66
2023-05-06T22:17:26.139Z,93.58
2023-05-06T22:19:54.392Z,93.78
2023-05-06T22:22:21.658Z,93.33
2023-05-06T22:24:48.631Z,93.99
2023-05-06T22:27:15.334Z,94.15
2023-05-06T22:29:41.932Z,93.90
2023-05-06T22:32:08.755Z,94.19
2023-05-06T22:34:35.660Z,94.30
2023-05-06T22:37:08.101Z,94.24
2023-05-06T22:39:34.834Z,93.82
2023-05-06T22:42:01.782Z,94.19
2023-05-06T22:44:28.350Z,93.98
2023-05-06T22:46:55.046Z,93.66
2023-05-06T22:49:21.832Z,94.10
2023-05-06T22:51:48.412Z,94.57
2023-05-06T22:54:15.043Z,93.58
2023-05-06T22:56:41.625Z,92.98
2023-05-06T22:59:08.293Z,93.36
2023-05-06T23:01:34.966Z,93.77
2023-05-06T23:04:01.611Z,94.01
2023-05-06T23:06:28.498Z,94.26
2023-05-06T23:08:55.077Z,94.00
2023-05-06T23:11:21.667Z,94.42
2023-05-06T23:13:48.293Z,94.37
2023-05-06T23:16:15.647Z,94.26
2023-05-06T23:18:42.358Z,93.57
2023-05-06T23:21:09.320Z,93.80
2023-05-06T23:23:36.017Z,93.79
2023-05-06T23:26:02.621Z,93.41
2023-05-06T23:28:29.338Z,93.62
2023-05-06T23:30:55.997Z,93.48
2023-05-06T23:33:22.616Z,93.91
2023-05-06T23:35:49.264Z,93.55
2023-05-06T23:38:15.874Z,94.03
2023-05-06T23:40:42.515Z,94.30
2023-05-06T23:43:11.195Z,94.13
2023-05-06T23:45:38.055Z,94.18
2023-05-06T23:48:05.132Z,93.54
2023-05-06T23:50:31.787Z,94.05
2023-05-06T23:52:58.483Z,94.30
2023-05-06T23:55:26.341Z,94.57
2023-05-06T23:57:53.114Z,94.73
